createdAt,value
2022-12-20T00:00:52.309Z,18.15
2022-12-20T00:03:19.256Z,19.33
2022-12-20T00:05:46.350Z,19.35
2022-12-20T00:08:15.251Z,19.77
2022-12-20T00:10:44.263Z,17.98
2022-12-20T00:13:12.600Z,17.70
2022-12-20T00:15:46.389Z,18.58
2022-12-20T00:18:17.463Z,17.75
2022-12-20T00:21:01.056Z,17.15
2022-12-20T00:23:33.015Z,18.40
2022-12-20T00:26:13.069Z,16.55
2022-12-20T00:28:41.338Z,17.30
2022-12-20T00:31:11.374Z,18.48
2022-12-20T00:33:44.891Z,18.15
2022-12-20T00:36:11.995Z,18.73
2022-12-20T00:38:40.013Z,18.55
2022-12-20T00:41:08.496Z,18.70
2022-12-20T00:43:36.078Z,18.38
2022-12-20T00:46:03.467Z,18.45
2022-12-20T00:48:32.105Z,17.67
2022-12-20T00:50:59.627Z,18.10
2022-12-20T00:53:26.865Z,18.40
2022-12-20T00:55:55.083Z,18.67
2022-12-20T00:58:22.398Z,18.50
2022-12-20T01:00:55.932Z,20.17
2022-12-20T01:03:23.892Z,19.75
2022-12-20T01:05:52.220Z,18.48
2022-12-20T01:08:19.752Z,18.88
2022-12-20T01:10:46.379Z,19.45
2022-12-20T01:13:14.331Z,20.20
2022-12-20T01:15:40.895Z,19.80
2022-12-20T01:18:07.500Z,19.48
2022-12-20T01:20:34.058Z,19.23
2022-12-20T01:23:00.628Z,19.35
2022-12-20T01:25:27.205Z,19.00
2022-12-20T01:27:53.764Z,19.88
2022-12-20T01:30:21.730Z,19.38
2022-12-20T01:32:48.373Z,17.98
2022-12-20T01:35:15.069Z,17.83
2022-12-20T01:37:41.623Z,17.05
2022-12-20T01:40:09.370Z,17.25
2022-12-20T01:42:36.044Z,17.45
2022-12-20T01:45:07.499Z,18.40
2022-12-20T01:47:37.539Z,17.70
2022-12-20T01:50:06.163Z,17.80
2022-12-20T01:52:37.130Z,17.30
2022-12-20T01:55:10.727Z,17.40
2022-12-20T01:57:42.263Z,18.40
2022-12-20T02:00:10.218Z,19.35
2022-12-20T02:02:38.546Z,20.23
2022-12-20T02:05:06.296Z,20.40
2022-12-20T02:07:36.139Z,23.10
2022-12-20T02:10:04.091Z,21.92
2022-12-20T02:12:38.721Z,21.70
2022-12-20T02:15:26.953Z,21.75
2022-12-20T02:18:07.822Z,24.17
2022-12-20T02:20:58.306Z,24.02
2022-12-20T02:23:50.356Z,23.48
2022-12-20T02:26:39.564Z,24.00
2022-12-20T02:29:23.575Z,23.38
2022-12-20T02:32:01.342Z,22.95
2022-12-20T02:34:30.130Z,22.25
2022-12-20T02:36:56.753Z,21.23
2022-12-20T02:39:27.068Z,22.33
2022-12-20T02:41:56.344Z,22.85
2022-12-20T02:44:26.297Z,22.67
2022-12-20T02:46:56.345Z,22.35
2022-12-20T02:49:28.715Z,23.05
2022-12-20T02:51:57.356Z,22.25
2022-12-20T02:54:24.674Z,22.63
2022-12-20T02:56:56.374Z,23.10
2022-12-20T02:59:26.043Z,23.95
2022-12-20T03:01:55.790Z,32.60
2022-12-20T03:04:26.155Z,32.65
2022-12-20T03:07:00.288Z,25.60
2022-12-20T03:09:26.947Z,25.30
2022-12-20T03:11:54.305Z,25.70
2022-12-20T03:14:21.159Z,23.88
2022-12-20T03:16:47.814Z,23.75
2022-12-20T03:19:15.819Z,24.08
2022-12-20T03:21:42.585Z,23.35
2022-12-20T03:24:09.238Z,23.73
2022-12-20T03:26:35.807Z,24.35
2022-12-20T03:29:02.593Z,22.90
2022-12-20T03:31:29.351Z,24.63
2022-12-20T03:33:56.316Z,24.02
2022-12-20T03:36:24.436Z,23.52
2022-12-20T03:38:51.600Z,21.75
2022-12-20T03:41:19.861Z,23.13
2022-12-20T03:43:46.501Z,23.35
2022-12-20T03:46:13.575Z,21.83
2022-12-20T03:48:40.303Z,21.35
2022-12-20T03:51:06.954Z,21.80
2022-12-20T03:53:34.957Z,23.25
2022-12-20T03:56:01.693Z,22.00
2022-12-20T03:58:28.344Z,24.10
2022-12-20T04:00:56.504Z,23.15
2022-12-20T04:03:23.225Z,22.85
2022-12-20T04:05:49.826Z,22.60
2022-12-20T04:08:16.548Z,22.80
2022-12-20T04:10:47.388Z,20.45
2022-12-20T04:13:20.255Z,21.55
2022-12-20T04:16:00.039Z,22.52
2022-12-20T04:18:30.338Z,21.65
2022-12-20T04:21:02.163Z,20.92
2022-12-20T04:23:29.197Z,21.95
2022-12-20T04:26:00.667Z,21.67
2022-12-20T04:28:30.488Z,22.75
2022-12-20T04:31:01.462Z,20.73
2022-12-20T04:33:30.977Z,21.15
2022-12-20T04:36:01.036Z,22.27
2022-12-20T04:38:30.686Z,21.00
2022-12-20T04:43:31.588Z,19.60
2022-12-20T04:46:00.404Z,21.25
2022-12-20T04:51:17.316Z,19.25
2022-12-20T04:53:44.592Z,20.92
2022-12-20T04:56:13.092Z,20.05
2022-12-20T04:58:42.081Z,20.77
2022-12-20T05:01:12.252Z,20.13
2022-12-20T05:03:42.842Z,21.33
2022-12-20T05:06:11.988Z,20.90
2022-12-20T05:08:38.744Z,19.20
2022-12-20T05:11:06.307Z,19.17
2022-12-20T05:13:35.159Z,20.02
2022-12-20T05:16:02.250Z,20.07
2022-12-20T05:18:29.003Z,19.30
2022-12-20T05:20:57.171Z,19.95
2022-12-20T05:23:23.784Z,21.42
2022-12-20T05:25:51.072Z,20.75
2022-12-20T05:28:17.720Z,20.55
2022-12-20T05:30:45.915Z,21.73
2022-12-20T05:33:13.010Z,21.55
2022-12-20T05:35:39.872Z,21.27
2022-12-20T05:38:09.352Z,20.45
2022-12-20T05:40:37.715Z,21.10
2022-12-20T05:43:06.210Z,21.75
2022-12-20T05:45:38.429Z,19.90
2022-12-20T05:48:07.120Z,19.00
2022-12-20T05:50:33.733Z,19.35
2022-12-20T05:53:02.532Z,19.17
2022-12-20T05:55:32.622Z,19.48
2022-12-20T05:57:59.376Z,17.52
2022-12-20T06:00:26.011Z,18.45
2022-12-20T06:02:52.859Z,19.42
2022-12-20T06:05:21.092Z,19.30
2022-12-20T06:07:47.699Z,19.10
2022-12-20T06:10:14.422Z,20.88
2022-12-20T06:12:41.021Z,18.85
2022-12-20T06:15:08.669Z,20.88
2022-12-20T06:17:35.289Z,19.02
2022-12-20T06:20:02.004Z,18.63
2022-12-20T06:22:30.211Z,18.45
2022-12-20T06:24:56.925Z,16.92
2022-12-20T06:27:23.596Z,18.55
2022-12-20T06:29:50.310Z,18.52
2022-12-20T06:32:17.835Z,18.80
2022-12-20T06:34:45.464Z,18.30
2022-12-20T06:37:12.478Z,17.67
2022-12-20T06:39:41.659Z,19.23
2022-12-20T06:42:08.446Z,18.98
2022-12-20T06:44:35.854Z,19.10
2022-12-20T06:47:03.208Z,20.25
2022-12-20T06:49:30.094Z,18.58
2022-12-20T06:51:56.994Z,19.88
2022-12-20T06:54:23.793Z,19.98
2022-12-20T06:56:52.421Z,19.90
2022-12-20T06:59:19.578Z,18.27
2022-12-20T07:01:46.859Z,18.13
2022-12-20T07:04:13.950Z,19.33
2022-12-20T07:06:40.635Z,18.85
2022-12-20T07:09:07.479Z,18.50
2022-12-20T07:11:34.490Z,18.05
2022-12-20T07:14:02.741Z,17.10
2022-12-20T07:16:30.032Z,17.17
2022-12-20T07:18:56.924Z,16.80
2022-12-20T07:21:24.110Z,19.00
2022-12-20T07:23:52.895Z,18.50
2022-12-20T07:26:19.790Z,18.15
2022-12-20T07:28:46.752Z,18.77
2022-12-20T07:31:15.512Z,20.10
2022-12-20T07:33:42.521Z,18.50
2022-12-20T07:36:11.765Z,19.42
2022-12-20T07:38:52.047Z,18.00
2022-12-20T07:44:19.186Z,22.00
2022-12-20T07:47:06.787Z,22.40
2022-12-20T07:49:38.760Z,22.15
2022-12-20T07:52:23.969Z,21.08
2022-12-20T07:55:05.334Z,19.45
2022-12-20T07:57:44.347Z,19.30
2022-12-20T08:00:40.626Z,20.23
2022-12-20T08:03:33.450Z,19.70
2022-12-20T08:06:15.700Z,18.92
2022-12-20T08:09:00.508Z,18.80
2022-12-20T08:14:29.255Z,19.17
2022-12-20T08:17:12.575Z,19.55
2022-12-20T08:20:19.592Z,19.80
2022-12-20T08:22:58.121Z,18.70
2022-12-20T08:25:42.124Z,19.05
2022-12-20T08:31:20.267Z,20.70
2022-12-20T08:34:07.317Z,19.30
2022-12-20T08:36:53.121Z,19.33
2022-12-20T08:39:39.580Z,19.90
2022-12-20T08:45:19.660Z,21.23
2022-12-20T08:48:03.287Z,20.08
2022-12-20T08:50:45.965Z,20.92
2022-12-20T08:53:27.335Z,19.90
2022-12-20T08:59:09.111Z,20.02
2022-12-20T09:01:51.217Z,20.25
2022-12-20T09:04:24.609Z,19.85
2022-12-20T09:07:06.272Z,19.50
2022-12-20T09:09:47.244Z,19.83
2022-12-20T09:12:33.925Z,22.52
2022-12-20T09:15:27.836Z,23.75
2022-12-20T09:18:03.009Z,22.40
2022-12-20T09:21:00.238Z,23.33
2022-12-20T09:23:41.382Z,24.20
2022-12-20T09:26:19.671Z,22.90
2022-12-20T09:29:03.633Z,24.63
2022-12-20T09:31:50.196Z,23.50
2022-12-20T09:34:22.347Z,23.17
2022-12-20T09:37:16.094Z,22.83
2022-12-20T09:39:53.457Z,21.92
2022-12-20T09:42:37.210Z,21.92
2022-12-20T09:45:29.549Z,23.10
2022-12-20T09:48:17.023Z,22.85
2022-12-20T09:51:25.419Z,24.50
2022-12-20T09:54:17.471Z,22.33
2022-12-20T09:57:23.157Z,21.98
2022-12-20T10:03:10.997Z,22.23
2022-12-20T10:05:59.719Z,22.40
2022-12-20T10:09:04.185Z,21.95
2022-12-20T10:12:22.904Z,21.27
2022-12-20T10:15:22.773Z,22.27
2022-12-20T10:18:22.457Z,21.02
2022-12-20T10:23:57.799Z,21.98
2022-12-20T10:26:24.496Z,23.45
2022-12-20T10:29:02.592Z,22.73
2022-12-20T10:32:01.642Z,21.40
2022-12-20T10:37:28.894Z,22.77
2022-12-20T10:40:07.394Z,23.90
2022-12-20T10:42:49.686Z,24.92
2022-12-20T10:45:47.391Z,25.38
2022-12-20T10:48:41.877Z,26.40
2022-12-20T10:51:45.571Z,25.77
2022-12-20T10:54:39.016Z,25.15
2022-12-20T11:00:35.327Z,24.85
2022-12-20T11:03:26.457Z,24.55
2022-12-20T11:06:23.540Z,23.00
2022-12-20T11:09:15.464Z,22.65
2022-12-20T11:12:11.872Z,24.02
2022-12-20T11:14:52.014Z,24.10
2022-12-20T11:17:28.549Z,23.98
2022-12-20T11:20:11.858Z,22.17
2022-12-20T11:22:49.399Z,21.90
2022-12-20T11:25:35.148Z,22.98
2022-12-20T11:28:17.419Z,24.67
2022-12-20T11:30:54.260Z,23.05
2022-12-20T11:33:42.160Z,22.45
2022-12-20T11:36:19.022Z,21.30
2022-12-20T11:38:51.523Z,22.00
2022-12-20T11:41:24.771Z,22.17
2022-12-20T11:47:08.125Z,22.25
2022-12-20T11:49:53.244Z,22.65
2022-12-20T11:52:32.850Z,22.90
2022-12-20T11:57:55.154Z,22.08
2022-12-20T12:00:25.780Z,20.80
2022-12-20T12:02:58.812Z,20.27
2022-12-20T12:05:30.007Z,18.48
2022-12-20T12:08:03.966Z,19.35
2022-12-20T12:10:36.223Z,19.45
2022-12-20T12:13:11.757Z,20.58
2022-12-20T12:15:51.089Z,22.23
2022-12-20T12:18:24.869Z,22.42
2022-12-20T12:21:09.373Z,23.02
2022-12-20T12:23:58.963Z,23.65
2022-12-20T12:26:42.086Z,24.00
2022-12-20T12:29:24.304Z,24.15
2022-12-20T12:32:04.981Z,24.65
2022-12-20T12:35:12.961Z,25.35
2022-12-20T12:38:09.748Z,24.88
2022-12-20T12:41:11.958Z,23.55
2022-12-20T12:44:27.792Z,25.45
2022-12-20T12:47:16.991Z,24.27
2022-12-20T12:50:05.845Z,24.35
2022-12-20T12:52:53.002Z,22.75
2022-12-20T12:56:41.713Z,22.67
2022-12-20T12:59:48.264Z,21.58
2022-12-20T13:03:01.569Z,22.15
2022-12-20T13:06:05.191Z,21.40
2022-12-20T13:11:47.837Z,23.60
2022-12-20T13:14:58.019Z,23.33
2022-12-20T13:18:01.319Z,22.08
2022-12-20T13:20:38.539Z,24.75
2022-12-20T13:23:34.561Z,25.00
2022-12-20T13:26:41.001Z,25.55
2022-12-20T13:29:24.134Z,25.30
2022-12-20T13:31:58.732Z,26.42
2022-12-20T13:34:52.256Z,24.77
2022-12-20T13:37:54.357Z,24.98
2022-12-20T13:40:31.955Z,24.40
2022-12-20T13:43:05.730Z,24.85
2022-12-20T13:45:33.004Z,24.10
2022-12-20T13:48:19.908Z,24.98
2022-12-20T13:50:49.687Z,25.67
2022-12-20T13:53:31.764Z,26.67
2022-12-20T13:56:32.893Z,25.42
2022-12-20T13:59:05.416Z,23.48
2022-12-20T14:01:33.089Z,23.73
2022-12-20T14:04:05.300Z,22.63
2022-12-20T14:06:32.015Z,23.23
2022-12-20T14:08:58.636Z,23.40
2022-12-20T14:11:27.248Z,21.73
2022-12-20T14:13:55.886Z,23.77
2022-12-20T14:16:24.776Z,23.00
2022-12-20T14:19:01.390Z,24.50
2022-12-20T14:21:28.937Z,23.40
2022-12-20T14:23:57.676Z,23.65
2022-12-20T14:26:28.191Z,23.00
2022-12-20T14:28:56.963Z,23.35
2022-12-20T14:31:26.179Z,24.07
2022-12-20T14:34:02.178Z,24.33
2022-12-20T14:36:28.872Z,23.13
2022-12-20T14:38:55.464Z,24.23
2022-12-20T14:41:35.663Z,25.00
2022-12-20T14:44:16.190Z,25.02
2022-12-20T14:46:49.327Z,24.02
2022-12-20T14:49:20.851Z,25.67
2022-12-20T14:51:48.400Z,23.95
2022-12-20T14:54:39.881Z,25.10
2022-12-20T14:57:11.516Z,25.70
2022-12-20T14:59:38.164Z,25.75
2022-12-20T15:02:31.603Z,26.67
2022-12-20T15:04:58.396Z,26.92
2022-12-20T15:07:31.716Z,27.40
2022-12-20T15:09:58.265Z,26.20
2022-12-20T15:12:26.298Z,28.05
2022-12-20T15:14:52.987Z,30.67
2022-12-20T15:17:19.650Z,29.10
2022-12-20T15:19:46.267Z,41.72
2022-12-20T15:22:15.759Z,30.88
2022-12-20T15:24:42.546Z,29.73
2022-12-20T15:27:12.618Z,26.77
2022-12-20T15:29:40.703Z,28.48
2022-12-20T15:32:15.727Z,27.77
2022-12-20T15:34:42.465Z,24.75
2022-12-20T15:37:18.364Z,25.83
2022-12-20T15:39:46.254Z,26.35
2022-12-20T15:42:16.443Z,26.40
2022-12-20T15:44:44.864Z,26.17
2022-12-20T15:47:13.182Z,27.02
2022-12-20T15:49:44.573Z,25.98
2022-12-20T15:52:19.645Z,27.35
2022-12-20T15:54:46.317Z,28.05
2022-12-20T15:57:14.141Z,28.88
2022-12-20T16:02:30.460Z,27.98
2022-12-20T16:04:57.358Z,27.50
2022-12-20T16:07:27.976Z,27.63
2022-12-20T16:09:54.634Z,27.73
2022-12-20T16:12:25.244Z,26.35
2022-12-20T16:14:51.832Z,27.48
2022-12-20T16:17:18.593Z,27.00
2022-12-20T16:19:46.856Z,36.40
2022-12-20T16:22:15.719Z,37.25
2022-12-20T16:24:42.476Z,30.13
2022-12-20T16:27:11.890Z,37.15
2022-12-20T16:29:38.813Z,29.55
2022-12-20T16:32:14.365Z,27.90
2022-12-20T16:34:41.077Z,28.08
2022-12-20T16:37:09.512Z,27.33
2022-12-20T16:39:36.310Z,26.20
2022-12-20T16:42:03.108Z,24.85
2022-12-20T16:44:29.774Z,28.13
2022-12-20T16:47:05.196Z,27.40
2022-12-20T16:49:31.922Z,29.27
2022-12-20T16:51:58.645Z,28.83
2022-12-20T16:54:26.591Z,29.85
2022-12-20T16:56:53.215Z,29.35
2022-12-20T16:59:22.537Z,30.08
2022-12-20T17:01:52.707Z,30.67
2022-12-20T17:04:19.817Z,30.83
2022-12-20T17:06:46.660Z,33.30
2022-12-20T17:09:13.923Z,30.70
2022-12-20T17:11:42.367Z,32.47
2022-12-20T17:14:12.936Z,33.72
2022-12-20T17:16:39.943Z,33.55
2022-12-20T17:19:06.571Z,32.90
2022-12-20T17:24:22.960Z,33.28
2022-12-20T17:26:51.248Z,33.70
2022-12-20T17:29:17.946Z,35.13
2022-12-20T17:31:46.034Z,34.97
2022-12-20T17:34:16.430Z,36.35
2022-12-20T17:36:43.107Z,35.53
2022-12-20T17:39:09.777Z,35.35
2022-12-20T17:41:36.724Z,35.08
2022-12-20T17:44:06.337Z,37.42
2022-12-20T17:48:59.399Z,35.47
2022-12-20T17:51:28.029Z,35.35
2022-12-20T17:53:56.367Z,37.42
2022-12-20T17:56:25.791Z,36.38
2022-12-20T17:58:53.380Z,36.13
2022-12-20T18:01:23.683Z,35.38
2022-12-20T18:04:03.659Z,35.83
2022-12-20T18:06:32.292Z,36.55
2022-12-20T18:08:59.230Z,34.10
2022-12-20T18:11:28.200Z,33.75
2022-12-20T18:13:56.227Z,35.70
2022-12-20T18:16:26.790Z,33.42
2022-12-20T18:18:53.519Z,33.85
2022-12-20T18:21:21.400Z,34.63
2022-12-20T18:23:48.510Z,31.75
2022-12-20T18:26:17.413Z,34.45
2022-12-20T18:28:46.171Z,31.17
2022-12-20T18:31:14.575Z,30.63
2022-12-20T18:33:42.603Z,28.90
2022-12-20T18:36:11.977Z,29.15
2022-12-20T18:38:40.279Z,27.23
2022-12-20T18:41:08.509Z,28.27
2022-12-20T18:43:35.698Z,26.20
2022-12-20T18:46:04.401Z,27.67
2022-12-20T18:48:31.104Z,25.57
2022-12-20T18:51:04.071Z,26.65
2022-12-20T18:53:31.849Z,25.52
2022-12-20T18:56:01.727Z,25.83
2022-12-20T18:58:28.441Z,27.45
2022-12-20T19:00:56.984Z,27.40
2022-12-20T19:03:23.751Z,27.02
2022-12-20T19:05:51.655Z,26.85
2022-12-20T19:08:19.639Z,27.85
2022-12-20T19:10:46.457Z,26.20
2022-12-20T19:13:13.051Z,28.17
2022-12-20T19:15:39.774Z,27.77
2022-12-20T19:18:06.419Z,27.67
2022-12-20T19:20:34.949Z,27.30
2022-12-20T19:23:01.597Z,28.70
2022-12-20T19:25:32.408Z,28.60
2022-12-20T19:27:59.087Z,29.63
2022-12-20T19:30:25.676Z,31.67
2022-12-20T19:32:52.314Z,29.80
2022-12-20T19:35:53.462Z,30.33
2022-12-20T19:38:05.490Z,28.65
2022-12-20T19:40:33.460Z,29.83
2022-12-20T19:43:00.088Z,28.02
2022-12-20T19:45:26.703Z,29.60
2022-12-20T19:47:53.296Z,31.25
2022-12-20T19:50:20.109Z,31.13
2022-12-20T19:52:46.749Z,31.48
2022-12-20T19:55:13.361Z,30.80
2022-12-20T19:57:41.386Z,33.75
2022-12-20T20:00:09.425Z,32.70
2022-12-20T20:02:36.139Z,35.40
2022-12-20T20:05:02.985Z,35.10
2022-12-20T20:07:29.547Z,35.20
2022-12-20T20:09:56.188Z,35.25
2022-12-20T20:12:22.891Z,35.17
2022-12-20T20:14:50.919Z,34.60
2022-12-20T20:17:17.555Z,33.88
2022-12-20T20:19:45.809Z,36.50
2022-12-20T20:22:16.458Z,32.75
2022-12-20T20:24:45.909Z,32.78
2022-12-20T20:27:12.601Z,33.20
2022-12-20T20:29:39.299Z,32.55
2022-12-20T20:32:07.364Z,31.42
2022-12-20T20:34:34.227Z,32.08
2022-12-20T20:37:01.139Z,31.73
2022-12-20T20:39:28.009Z,30.27
2022-12-20T20:41:54.740Z,31.10
2022-12-20T20:44:21.398Z,30.15
2022-12-20T20:46:48.180Z,33.35
2022-12-20T20:49:16.279Z,31.63
2022-12-20T20:51:48.512Z,32.15
2022-12-20T20:54:15.288Z,30.85
2022-12-20T20:56:42.170Z,32.45
2022-12-20T20:59:15.266Z,32.15
2022-12-20T21:01:44.410Z,32.88
2022-12-20T21:04:11.272Z,33.97
2022-12-20T21:06:44.264Z,35.20
2022-12-20T21:09:15.155Z,34.40
2022-12-20T21:11:42.544Z,33.17
2022-12-20T21:14:09.284Z,34.42
2022-12-20T21:16:36.073Z,35.10
2022-12-20T21:19:03.111Z,35.95
2022-12-20T21:21:29.918Z,35.95
2022-12-20T21:23:58.003Z,34.70
2022-12-20T21:26:24.657Z,33.83
2022-12-20T21:28:56.391Z,35.05
2022-12-20T21:31:23.238Z,33.78
2022-12-20T21:33:50.086Z,32.25
2022-12-20T21:36:18.318Z,32.83
2022-12-20T21:38:47.446Z,32.80
2022-12-20T21:41:16.232Z,34.25
2022-12-20T21:43:43.269Z,33.63
2022-12-20T21:46:12.651Z,33.25
2022-12-20T21:48:39.798Z,32.35
2022-12-20T21:51:08.205Z,32.58
2022-12-20T21:53:34.848Z,32.22
2022-12-20T21:56:01.877Z,32.42
2022-12-20T21:58:30.642Z,31.52
2022-12-20T22:00:57.815Z,31.50
2022-12-20T22:03:31.925Z,32.47
2022-12-20T22:05:58.980Z,35.25
2022-12-20T22:08:30.005Z,33.42
2022-12-20T22:11:00.763Z,33.55
2022-12-20T22:13:27.507Z,34.20
2022-12-20T22:15:55.916Z,33.33
2022-12-20T22:18:23.090Z,33.58
2022-12-20T22:20:49.744Z,31.80
2022-12-20T22:23:16.484Z,32.28
2022-12-20T22:25:43.505Z,32.38
2022-12-20T22:28:10.156Z,31.40
2022-12-20T22:30:40.796Z,30.63
2022-12-20T22:33:09.118Z,30.77
2022-12-20T22:35:35.752Z,31.08
2022-12-20T22:38:02.408Z,31.13
2022-12-20T22:40:28.983Z,30.30
2022-12-20T22:42:55.597Z,30.10
2022-12-20T22:45:22.288Z,28.55
2022-12-20T22:47:48.912Z,29.17
2022-12-20T22:50:17.041Z,29.00
2022-12-20T22:52:43.660Z,28.65
2022-12-20T22:55:11.161Z,26.67
2022-12-20T22:57:37.819Z,28.75
2022-12-20T23:00:06.387Z,26.40
2022-12-20T23:02:33.136Z,27.85
2022-12-20T23:05:03.126Z,26.67
2022-12-20T23:07:31.390Z,26.30
2022-12-20T23:09:57.980Z,27.38
2022-12-20T23:12:24.635Z,28.33
2022-12-20T23:14:51.301Z,27.05
2022-12-20T23:17:18.016Z,26.02
2022-12-20T23:19:45.015Z,26.15
2022-12-20T23:22:11.799Z,25.63
2022-12-20T23:24:41.735Z,23.95
2022-12-20T23:27:08.375Z,24.13
2022-12-20T23:29:35.082Z,23.63
2022-12-20T23:32:01.864Z,23.88
2022-12-20T23:34:28.555Z,23.80
2022-12-20T23:36:55.301Z,21.75
2022-12-20T23:39:22.007Z,23.08
2022-12-20T23:41:50.152Z,23.65
2022-12-20T23:44:16.814Z,22.15
2022-12-20T23:46:43.443Z,24.60
2022-12-20T23:49:10.103Z,24.95
2022-12-20T23:51:36.735Z,26.30
2022-12-20T23:54:03.439Z,26.52
2022-12-20T23:56:30.312Z,25.70
2022-12-20T23:58:58.369Z,26.40
